sensor_id;sensor_type;location;lat;lon;timestamp;temperature;humidity
67186;HTU21D;54116;53.518;49.398;2023-03-03T00:00:06;-6.58;106.78
67186;HTU21D;54116;53.518;49.398;2023-03-03T00:02:33;-6.50;105.79
67186;HTU21D;54116;53.518;49.398;2023-03-03T00:04:59;-6.48;106.06
67186;HTU21D;54116;53.518;49.398;2023-03-03T00:07:26;-6.47;106.61
67186;HTU21D;54116;53.518;49.398;2023-03-03T00:09:52;-6.46;106.79
67186;HTU21D;54116;53.518;49.398;2023-03-03T00:12:27;-6.46;106.86
67186;HTU21D;54116;53.518;49.398;2023-03-03T00:14:54;-6.46;106.59
67186;HTU21D;54116;53.518;49.398;2023-03-03T00:17:25;-6.43;107.06
67186;HTU21D;54116;53.518;49.398;2023-03-03T00:19:52;-6.42;108.46
67186;HTU21D;54116;53.518;49.398;2023-03-03T00:22:36;-6.39;106.84
67186;HTU21D;54116;53.518;49.398;2023-03-03T00:27:50;-6.45;108.62
67186;HTU21D;54116;53.518;49.398;2023-03-03T00:30:23;-6.48;105.57
67186;HTU21D;54116;53.518;49.398;2023-03-03T00:32:50;-6.51;105.25
67186;HTU21D;54116;53.518;49.398;2023-03-03T00:37:59;-6.58;106.69
67186;HTU21D;54116;53.518;49.398;2023-03-03T00:40:35;-6.58;106.68
67186;HTU21D;54116;53.518;49.398;2023-03-03T00:43:21;-6.61;106.30
67186;HTU21D;54116;53.518;49.398;2023-03-03T00:45:57;-6.64;107.20
67186;HTU21D;54116;53.518;49.398;2023-03-03T00:51:32;-6.62;107.88
67186;HTU21D;54116;53.518;49.398;2023-03-03T00:53:59;-6.60;107.80
67186;HTU21D;54116;53.518;49.398;2023-03-03T00:56:25;-6.56;107.18
67186;HTU21D;54116;53.518;49.398;2023-03-03T00:58:52;-6.55;107.08
67186;HTU21D;54116;53.518;49.398;2023-03-03T01:01:18;-6.49;108.08
67186;HTU21D;54116;53.518;49.398;2023-03-03T01:03:44;-6.43;107.20
67186;HTU21D;54116;53.518;49.398;2023-03-03T01:06:11;-6.41;107.17
67186;HTU21D;54116;53.518;49.398;2023-03-03T01:08:38;-6.41;107.33
67186;HTU21D;54116;53.518;49.398;2023-03-03T01:11:07;-6.38;108.56
67186;HTU21D;54116;53.518;49.398;2023-03-03T01:13:36;-6.31;108.44
67186;HTU21D;54116;53.518;49.398;2023-03-03T01:16:03;-6.28;107.12
67186;HTU21D;54116;53.518;49.398;2023-03-03T01:18:30;-6.27;107.99
67186;HTU21D;54116;53.518;49.398;2023-03-03T01:20:56;-6.28;107.10
67186;HTU21D;54116;53.518;49.398;2023-03-03T01:23:40;-6.28;106.53
67186;HTU21D;54116;53.518;49.398;2023-03-03T01:26:06;-6.29;108.29
67186;HTU21D;54116;53.518;49.398;2023-03-03T01:28:33;-6.24;108.33
67186;HTU21D;54116;53.518;49.398;2023-03-03T01:31:02;-6.22;108.30
67186;HTU21D;54116;53.518;49.398;2023-03-03T01:33:29;-6.21;107.91
67186;HTU21D;54116;53.518;49.398;2023-03-03T01:35:56;-6.24;107.71
67186;HTU21D;54116;53.518;49.398;2023-03-03T01:38:22;-6.27;108.10
67186;HTU21D;54116;53.518;49.398;2023-03-03T01:40:55;-6.24;108.49
67186;HTU21D;54116;53.518;49.398;2023-03-03T01:43:21;-6.23;108.80
67186;HTU21D;54116;53.518;49.398;2023-03-03T01:48:36;-6.27;108.13
67186;HTU21D;54116;53.518;49.398;2023-03-03T01:51:18;-6.33;108.38
67186;HTU21D;54116;53.518;49.398;2023-03-03T01:53:53;-6.39;108.49
67186;HTU21D;54116;53.518;49.398;2023-03-03T01:56:20;-6.45;108.94
67186;HTU21D;54116;53.518;49.398;2023-03-03T01:58:51;-6.55;109.16
67186;HTU21D;54116;53.518;49.398;2023-03-03T02:01:25;-6.58;109.12
67186;HTU21D;54116;53.518;49.398;2023-03-03T02:03:51;-6.66;109.39
67186;HTU21D;54116;53.518;49.398;2023-03-03T02:06:21;-6.70;109.63
67186;HTU21D;54116;53.518;49.398;2023-03-03T02:08:53;-6.72;109.50
67186;HTU21D;54116;53.518;49.398;2023-03-03T02:11:24;-6.70;109.44
67186;HTU21D;54116;53.518;49.398;2023-03-03T02:13:52;-6.68;109.74
67186;HTU21D;54116;53.518;49.398;2023-03-03T02:16:18;-6.64;109.73
67186;HTU21D;54116;53.518;49.398;2023-03-03T02:18:44;-6.64;109.66
67186;HTU21D;54116;53.518;49.398;2023-03-03T02:21:20;-6.61;109.21
67186;HTU21D;54116;53.518;49.398;2023-03-03T02:26:36;-6.59;108.65
67186;HTU21D;54116;53.518;49.398;2023-03-03T02:29:03;-6.59;109.42
67186;HTU21D;54116;53.518;49.398;2023-03-03T02:31:31;-6.61;109.36
67186;HTU21D;54116;53.518;49.398;2023-03-03T02:33:58;-6.60;109.49
67186;HTU21D;54116;53.518;49.398;2023-03-03T02:36:27;-6.55;109.16
67186;HTU21D;54116;53.518;49.398;2023-03-03T02:39:19;-6.52;108.84
67186;HTU21D;54116;53.518;49.398;2023-03-03T02:41:56;-6.51;108.95
67186;HTU21D;54116;53.518;49.398;2023-03-03T02:44:25;-6.49;108.77
67186;HTU21D;54116;53.518;49.398;2023-03-03T02:46:53;-6.50;109.58
67186;HTU21D;54116;53.518;49.398;2023-03-03T02:49:23;-6.50;108.75
67186;HTU21D;54116;53.518;49.398;2023-03-03T02:51:51;-6.48;109.40
67186;HTU21D;54116;53.518;49.398;2023-03-03T02:54:19;-6.45;109.20
67186;HTU21D;54116;53.518;49.398;2023-03-03T02:56:46;-6.47;109.84
67186;HTU21D;54116;53.518;49.398;2023-03-03T02:59:12;-6.49;110.87
67186;HTU21D;54116;53.518;49.398;2023-03-03T03:01:39;-6.51;113.51
67186;HTU21D;54116;53.518;49.398;2023-03-03T03:04:08;-6.51;109.80
67186;HTU21D;54116;53.518;49.398;2023-03-03T03:06:47;-6.51;109.46
67186;HTU21D;54116;53.518;49.398;2023-03-03T03:09:15;-6.49;109.23
67186;HTU21D;54116;53.518;49.398;2023-03-03T03:11:41;-6.49;109.61
67186;HTU21D;54116;53.518;49.398;2023-03-03T03:14:11;-6.46;108.97
67186;HTU21D;54116;53.518;49.398;2023-03-03T03:16:37;-6.43;109.24
67186;HTU21D;54116;53.518;49.398;2023-03-03T03:19:04;-6.39;109.43
67186;HTU21D;54116;53.518;49.398;2023-03-03T03:21:31;-6.36;108.72
67186;HTU21D;54116;53.518;49.398;2023-03-03T03:23:57;-6.33;108.54
67186;HTU21D;54116;53.518;49.398;2023-03-03T03:26:23;-6.32;107.57
67186;HTU21D;54116;53.518;49.398;2023-03-03T03:28:50;-6.34;107.20
67186;HTU21D;54116;53.518;49.398;2023-03-03T03:31:18;-6.34;107.36
67186;HTU21D;54116;53.518;49.398;2023-03-03T03:33:44;-6.33;108.04
67186;HTU21D;54116;53.518;49.398;2023-03-03T03:36:11;-6.29;107.85
67186;HTU21D;54116;53.518;49.398;2023-03-03T03:38:37;-6.26;107.36
67186;HTU21D;54116;53.518;49.398;2023-03-03T03:41:04;-6.24;106.98
67186;HTU21D;54116;53.518;49.398;2023-03-03T03:43:30;-6.24;106.48
67186;HTU21D;54116;53.518;49.398;2023-03-03T03:45:56;-6.22;106.34
67186;HTU21D;54116;53.518;49.398;2023-03-03T03:48:22;-6.18;106.82
67186;HTU21D;54116;53.518;49.398;2023-03-03T03:50:50;-6.17;106.11
67186;HTU21D;54116;53.518;49.398;2023-03-03T03:53:17;-6.14;106.00
67186;HTU21D;54116;53.518;49.398;2023-03-03T03:55:43;-6.09;105.54
67186;HTU21D;54116;53.518;49.398;2023-03-03T03:58:17;-6.04;104.85
67186;HTU21D;54116;53.518;49.398;2023-03-03T04:00:44;-6.00;104.66
67186;HTU21D;54116;53.518;49.398;2023-03-03T04:03:11;-5.96;104.53
67186;HTU21D;54116;53.518;49.398;2023-03-03T04:05:39;-5.89;103.31
67186;HTU21D;54116;53.518;49.398;2023-03-03T04:08:05;-5.82;103.15
67186;HTU21D;54116;53.518;49.398;2023-03-03T04:10:32;-5.78;103.05
67186;HTU21D;54116;53.518;49.398;2023-03-03T04:12:58;-5.74;102.73
67186;HTU21D;54116;53.518;49.398;2023-03-03T04:15:24;-5.72;102.63
67186;HTU21D;54116;53.518;49.398;2023-03-03T04:17:50;-5.70;102.35
67186;HTU21D;54116;53.518;49.398;2023-03-03T04:20:17;-5.63;102.29
67186;HTU21D;54116;53.518;49.398;2023-03-03T04:22:43;-5.59;101.78
67186;HTU21D;54116;53.518;49.398;2023-03-03T04:25:13;-5.55;101.60
67186;HTU21D;54116;53.518;49.398;2023-03-03T04:27:40;-5.50;101.58
67186;HTU21D;54116;53.518;49.398;2023-03-03T04:30:08;-5.44;100.94
67186;HTU21D;54116;53.518;49.398;2023-03-03T04:32:34;-5.39;100.32
67186;HTU21D;54116;53.518;49.398;2023-03-03T04:35:00;-5.41;99.53
67186;HTU21D;54116;53.518;49.398;2023-03-03T04:37:26;-5.41;100.67
67186;HTU21D;54116;53.518;49.398;2023-03-03T04:39:52;-5.39;99.90
67186;HTU21D;54116;53.518;49.398;2023-03-03T04:42:19;-5.33;99.15
67186;HTU21D;54116;53.518;49.398;2023-03-03T04:44:45;-5.32;99.05
67186;HTU21D;54116;53.518;49.398;2023-03-03T04:47:17;-5.32;99.67
67186;HTU21D;54116;53.518;49.398;2023-03-03T04:49:44;-5.34;99.85
67186;HTU21D;54116;53.518;49.398;2023-03-03T04:52:11;-5.31;100.03
67186;HTU21D;54116;53.518;49.398;2023-03-03T04:54:37;-5.25;98.52
67186;HTU21D;54116;53.518;49.398;2023-03-03T04:57:03;-5.18;98.37
67186;HTU21D;54116;53.518;49.398;2023-03-03T04:59:29;-5.10;97.84
67186;HTU21D;54116;53.518;49.398;2023-03-03T05:01:55;-5.10;97.58
67186;HTU21D;54116;53.518;49.398;2023-03-03T05:04:21;-5.12;97.77
67186;HTU21D;54116;53.518;49.398;2023-03-03T05:06:47;-5.07;97.36
67186;HTU21D;54116;53.518;49.398;2023-03-03T05:09:13;-5.02;98.52
67186;HTU21D;54116;53.518;49.398;2023-03-03T05:11:39;-4.99;98.16
67186;HTU21D;54116;53.518;49.398;2023-03-03T05:14:05;-4.97;98.56
67186;HTU21D;54116;53.518;49.398;2023-03-03T05:16:33;-4.95;98.58
67186;HTU21D;54116;53.518;49.398;2023-03-03T05:18:59;-4.98;99.35
67186;HTU21D;54116;53.518;49.398;2023-03-03T05:21:25;-4.94;98.55
67186;HTU21D;54116;53.518;49.398;2023-03-03T05:23:51;-4.91;99.71
67186;HTU21D;54116;53.518;49.398;2023-03-03T05:26:21;-4.86;98.70
67186;HTU21D;54116;53.518;49.398;2023-03-03T05:28:47;-4.88;99.73
67186;HTU21D;54116;53.518;49.398;2023-03-03T05:31:13;-5.00;99.59
67186;HTU21D;54116;53.518;49.398;2023-03-03T05:33:39;-5.08;101.01
67186;HTU21D;54116;53.518;49.398;2023-03-03T05:36:05;-5.02;100.39
67186;HTU21D;54116;53.518;49.398;2023-03-03T05:38:31;-4.93;100.78
67186;HTU21D;54116;53.518;49.398;2023-03-03T05:40:58;-4.96;100.51
67186;HTU21D;54116;53.518;49.398;2023-03-03T05:43:24;-4.96;100.93
67186;HTU21D;54116;53.518;49.398;2023-03-03T05:46:04;-5.00;101.67
67186;HTU21D;54116;53.518;49.398;2023-03-03T05:48:30;-4.93;102.47
67186;HTU21D;54116;53.518;49.398;2023-03-03T05:50:59;-4.95;103.14
67186;HTU21D;54116;53.518;49.398;2023-03-03T05:53:26;-4.90;103.60
67186;HTU21D;54116;53.518;49.398;2023-03-03T05:55:53;-4.79;102.77
67186;HTU21D;54116;53.518;49.398;2023-03-03T05:58:19;-4.61;102.43
67186;HTU21D;54116;53.518;49.398;2023-03-03T06:00:45;-4.53;101.09
67186;HTU21D;54116;53.518;49.398;2023-03-03T06:03:11;-4.54;103.70
67186;HTU21D;54116;53.518;49.398;2023-03-03T06:05:37;-4.44;102.76
67186;HTU21D;54116;53.518;49.398;2023-03-03T06:08:04;-4.24;101.67
67186;HTU21D;54116;53.518;49.398;2023-03-03T06:10:30;-4.12;100.87
67186;HTU21D;54116;53.518;49.398;2023-03-03T06:12:56;-4.05;99.92
67186;HTU21D;54116;53.518;49.398;2023-03-03T06:15:23;-3.91;99.34
67186;HTU21D;54116;53.518;49.398;2023-03-03T06:17:49;-3.80;98.68
67186;HTU21D;54116;53.518;49.398;2023-03-03T06:20:15;-3.79;98.67
67186;HTU21D;54116;53.518;49.398;2023-03-03T06:22:41;-3.99;98.97
67186;HTU21D;54116;53.518;49.398;2023-03-03T06:25:08;-4.04;98.61
67186;HTU21D;54116;53.518;49.398;2023-03-03T06:27:34;-3.93;99.18
67186;HTU21D;54116;53.518;49.398;2023-03-03T06:30:00;-3.90;98.29
67186;HTU21D;54116;53.518;49.398;2023-03-03T06:32:27;-3.82;98.29
67186;HTU21D;54116;53.518;49.398;2023-03-03T06:34:53;-3.75;99.05
67186;HTU21D;54116;53.518;49.398;2023-03-03T06:37:19;-3.50;98.78
67186;HTU21D;54116;53.518;49.398;2023-03-03T06:39:45;-3.38;97.03
67186;HTU21D;54116;53.518;49.398;2023-03-03T06:42:11;-3.24;96.47
67186;HTU21D;54116;53.518;49.398;2023-03-03T06:44:37;-3.01;95.33
67186;HTU21D;54116;53.518;49.398;2023-03-03T06:47:03;-3.12;94.68
67186;HTU21D;54116;53.518;49.398;2023-03-03T06:49:31;-3.05;94.66
67186;HTU21D;54116;53.518;49.398;2023-03-03T06:51:58;-2.89;94.72
67186;HTU21D;54116;53.518;49.398;2023-03-03T06:54:27;-2.90;94.56
67186;HTU21D;54116;53.518;49.398;2023-03-03T07:02:42;-2.09;92.66
67186;HTU21D;54116;53.518;49.398;2023-03-03T07:05:15;-2.28;91.21
67186;HTU21D;54116;53.518;49.398;2023-03-03T07:07:42;-2.10;92.46
67186;HTU21D;54116;53.518;49.398;2023-03-03T07:10:19;-2.02;89.73
67186;HTU21D;54116;53.518;49.398;2023-03-03T07:12:47;-1.90;90.40
67186;HTU21D;54116;53.518;49.398;2023-03-03T07:15:22;-1.78;89.35
67186;HTU21D;54116;53.518;49.398;2023-03-03T07:17:52;-1.54;88.91
67186;HTU21D;54116;53.518;49.398;2023-03-03T07:20:22;-1.32;86.97
67186;HTU21D;54116;53.518;49.398;2023-03-03T07:22:49;-1.21;86.57
67186;HTU21D;54116;53.518;49.398;2023-03-03T07:25:33;-1.50;86.50
67186;HTU21D;54116;53.518;49.398;2023-03-03T07:28:31;-1.68;87.44
67186;HTU21D;54116;53.518;49.398;2023-03-03T07:30:57;-1.47;89.64
67186;HTU21D;54116;53.518;49.398;2023-03-03T07:33:37;-1.18;86.04
67186;HTU21D;54116;53.518;49.398;2023-03-03T07:36:25;-1.00;85.57
67186;HTU21D;54116;53.518;49.398;2023-03-03T07:38:54;-0.93;83.72
67186;HTU21D;54116;53.518;49.398;2023-03-03T07:41:20;-0.61;84.46
67186;HTU21D;54116;53.518;49.398;2023-03-03T07:46:56;-0.50;82.04
67186;HTU21D;54116;53.518;49.398;2023-03-03T07:49:23;-0.45;82.15
67186;HTU21D;54116;53.518;49.398;2023-03-03T07:51:56;-0.70;82.05
67186;HTU21D;54116;53.518;49.398;2023-03-03T07:54:38;-0.80;83.87
67186;HTU21D;54116;53.518;49.398;2023-03-03T07:57:18;-0.61;82.57
67186;HTU21D;54116;53.518;49.398;2023-03-03T07:59:50;-0.22;81.90
67186;HTU21D;54116;53.518;49.398;2023-03-03T08:05:01;0.22;79.30
67186;HTU21D;54116;53.518;49.398;2023-03-03T08:07:37;0.30;78.82
67186;HTU21D;54116;53.518;49.398;2023-03-03T08:10:34;0.25;80.00
67186;HTU21D;54116;53.518;49.398;2023-03-03T08:13:12;-0.11;78.78
67186;HTU21D;54116;53.518;49.398;2023-03-03T08:15:40;-0.30;80.09
67186;HTU21D;54116;53.518;49.398;2023-03-03T08:18:34;-0.46;84.24
67186;HTU21D;54116;53.518;49.398;2023-03-03T08:21:08;-0.25;80.76
67186;HTU21D;54116;53.518;49.398;2023-03-03T08:23:36;-0.16;84.29
67186;HTU21D;54116;53.518;49.398;2023-03-03T08:26:02;-0.22;81.37
67186;HTU21D;54116;53.518;49.398;2023-03-03T08:28:28;0.18;85.55
67186;HTU21D;54116;53.518;49.398;2023-03-03T08:30:54;0.37;78.83
67186;HTU21D;54116;53.518;49.398;2023-03-03T08:33:20;0.35;80.58
67186;HTU21D;54116;53.518;49.398;2023-03-03T08:35:47;0.49;82.78
67186;HTU21D;54116;53.518;49.398;2023-03-03T08:38:14;0.40;77.44
67186;HTU21D;54116;53.518;49.398;2023-03-03T08:40:40;0.27;81.76
67186;HTU21D;54116;53.518;49.398;2023-03-03T08:43:07;0.12;81.26
67186;HTU21D;54116;53.518;49.398;2023-03-03T08:45:34;0.02;80.93
67186;HTU21D;54116;53.518;49.398;2023-03-03T08:48:00;0.30;80.30
67186;HTU21D;54116;53.518;49.398;2023-03-03T08:50:27;0.50;78.55
67186;HTU21D;54116;53.518;49.398;2023-03-03T08:53:00;0.05;83.04
67186;HTU21D;54116;53.518;49.398;2023-03-03T08:55:26;0.15;79.20
67186;HTU21D;54116;53.518;49.398;2023-03-03T08:57:52;0.39;78.94
67186;HTU21D;54116;53.518;49.398;2023-03-03T09:00:19;0.57;79.33
67186;HTU21D;54116;53.518;49.398;2023-03-03T09:02:45;0.50;78.30
67186;HTU21D;54116;53.518;49.398;2023-03-03T09:05:12;0.27;78.64
67186;HTU21D;54116;53.518;49.398;2023-03-03T09:07:45;0.28;80.15
67186;HTU21D;54116;53.518;49.398;2023-03-03T09:10:17;0.47;79.46
67186;HTU21D;54116;53.518;49.398;2023-03-03T09:12:46;0.44;79.62
67186;HTU21D;54116;53.518;49.398;2023-03-03T09:15:25;0.10;80.49
67186;HTU21D;54116;53.518;49.398;2023-03-03T09:17:56;0.21;80.78
67186;HTU21D;54116;53.518;49.398;2023-03-03T09:20:37;0.37;79.59
67186;HTU21D;54116;53.518;49.398;2023-03-03T09:23:35;0.25;80.02
67186;HTU21D;54116;53.518;49.398;2023-03-03T09:28:39;0.15;81.20
67186;HTU21D;54116;53.518;49.398;2023-03-03T09:31:27;0.23;79.78
67186;HTU21D;54116;53.518;49.398;2023-03-03T09:33:55;0.42;80.64
67186;HTU21D;54116;53.518;49.398;2023-03-03T09:36:27;0.57;79.27
67186;HTU21D;54116;53.518;49.398;2023-03-03T09:38:59;0.65;78.40
67186;HTU21D;54116;53.518;49.398;2023-03-03T09:49:33;1.58;74.26
67186;HTU21D;54116;53.518;49.398;2023-03-03T09:52:18;1.26;76.41
67186;HTU21D;54116;53.518;49.398;2023-03-03T09:55:03;1.48;75.62
67186;HTU21D;54116;53.518;49.398;2023-03-03T09:57:59;1.47;75.61
67186;HTU21D;54116;53.518;49.398;2023-03-03T10:08:36;2.16;72.77
67186;HTU21D;54116;53.518;49.398;2023-03-03T10:11:17;2.05;74.21
67186;HTU21D;54116;53.518;49.398;2023-03-03T10:25:34;3.46;68.90
67186;HTU21D;54116;53.518;49.398;2023-03-03T10:34:59;1.71;72.98
67186;HTU21D;54116;53.518;49.398;2023-03-03T10:40:30;1.35;75.16
67186;HTU21D;54116;53.518;49.398;2023-03-03T10:43:02;1.28;75.48
67186;HTU21D;54116;53.518;49.398;2023-03-03T10:51:16;0.96;80.12
67186;HTU21D;54116;53.518;49.398;2023-03-03T10:53:52;1.28;80.13
67186;HTU21D;54116;53.518;49.398;2023-03-03T10:59:23;1.54;76.47
67186;HTU21D;54116;53.518;49.398;2023-03-03T11:07:39;1.60;75.42
67186;HTU21D;54116;53.518;49.398;2023-03-03T11:10:23;1.70;75.59
67186;HTU21D;54116;53.518;49.398;2023-03-03T11:13:05;2.00;72.61
67186;HTU21D;54116;53.518;49.398;2023-03-03T11:16:00;2.11;72.72
67186;HTU21D;54116;53.518;49.398;2023-03-03T11:18:49;2.32;71.00
67186;HTU21D;54116;53.518;49.398;2023-03-03T11:24:56;1.80;73.94
67186;HTU21D;54116;53.518;49.398;2023-03-03T11:30:44;1.84;73.42
67186;HTU21D;54116;53.518;49.398;2023-03-03T11:33:19;1.93;78.22
67186;HTU21D;54116;53.518;49.398;2023-03-03T11:36:38;2.49;72.06
67186;HTU21D;54116;53.518;49.398;2023-03-03T11:39:23;2.40;73.38
67186;HTU21D;54116;53.518;49.398;2023-03-03T11:44:49;1.66;75.51
67186;HTU21D;54116;53.518;49.398;2023-03-03T11:47:30;1.52;79.18
67186;HTU21D;54116;53.518;49.398;2023-03-03T11:52:56;1.25;77.69
67186;HTU21D;54116;53.518;49.398;2023-03-03T11:55:37;1.08;79.24
67186;HTU21D;54116;53.518;49.398;2023-03-03T11:58:13;1.18;77.94
67186;HTU21D;54116;53.518;49.398;2023-03-03T12:00:51;1.27;78.84
67186;HTU21D;54116;53.518;49.398;2023-03-03T12:03:39;1.61;78.00
67186;HTU21D;54116;53.518;49.398;2023-03-03T12:09:30;1.94;76.12
67186;HTU21D;54116;53.518;49.398;2023-03-03T12:12:14;2.20;79.92
67186;HTU21D;54116;53.518;49.398;2023-03-03T12:15:00;1.97;75.40
67186;HTU21D;54116;53.518;49.398;2023-03-03T12:20:25;1.71;75.86
67186;HTU21D;54116;53.518;49.398;2023-03-03T12:28:16;0.92;85.26
67186;HTU21D;54116;53.518;49.398;2023-03-03T12:31:28;0.36;88.47
67186;HTU21D;54116;53.518;49.398;2023-03-03T12:52:48;-1.27;93.98
67186;HTU21D;54116;53.518;49.398;2023-03-03T12:58:24;-1.59;90.94
67186;HTU21D;54116;53.518;49.398;2023-03-03T13:01:00;-1.71;91.81
67186;HTU21D;54116;53.518;49.398;2023-03-03T13:17:34;-2.06;99.18
67186;HTU21D;54116;53.518;49.398;2023-03-03T13:20:47;-2.13;99.64
67186;HTU21D;54116;53.518;49.398;2023-03-03T13:23:24;-2.19;99.22
67186;HTU21D;54116;53.518;49.398;2023-03-03T13:26:05;-2.24;99.98
67186;HTU21D;54116;53.518;49.398;2023-03-03T13:28:36;-2.26;99.30
67186;HTU21D;54116;53.518;49.398;2023-03-03T13:31:18;-2.31;100.70
67186;HTU21D;54116;53.518;49.398;2023-03-03T13:33:56;-2.35;100.08
67186;HTU21D;54116;53.518;49.398;2023-03-03T13:36:27;-2.39;101.35
67186;HTU21D;54116;53.518;49.398;2023-03-03T13:39:05;-2.42;99.87
67186;HTU21D;54116;53.518;49.398;2023-03-03T13:41:50;-2.45;100.84
67186;HTU21D;54116;53.518;49.398;2023-03-03T13:44:35;-2.45;99.71
67186;HTU21D;54116;53.518;49.398;2023-03-03T13:47:27;-2.50;100.17
67186;HTU21D;54116;53.518;49.398;2023-03-03T13:50:17;-2.53;101.39
67186;HTU21D;54116;53.518;49.398;2023-03-03T13:53:11;-2.56;100.49
67186;HTU21D;54116;53.518;49.398;2023-03-03T13:55:52;-2.53;101.28
67186;HTU21D;54116;53.518;49.398;2023-03-03T13:58:24;-2.53;101.18
67186;HTU21D;54116;53.518;49.398;2023-03-03T14:01:16;-2.54;100.99
67186;HTU21D;54116;53.518;49.398;2023-03-03T14:04:01;-2.51;100.09
67186;HTU21D;54116;53.518;49.398;2023-03-03T14:06:30;-2.52;99.67
67186;HTU21D;54116;53.518;49.398;2023-03-03T14:14:33;-2.60;101.11
67186;HTU21D;54116;53.518;49.398;2023-03-03T14:17:07;-2.61;101.04
67186;HTU21D;54116;53.518;49.398;2023-03-03T14:20:11;-2.67;101.03
67186;HTU21D;54116;53.518;49.398;2023-03-03T14:22:51;-2.68;101.39
67186;HTU21D;54116;53.518;49.398;2023-03-03T14:25:18;-2.76;101.20
67186;HTU21D;54116;53.518;49.398;2023-03-03T14:30:36;-2.83;100.99
67186;HTU21D;54116;53.518;49.398;2023-03-03T14:43:39;-3.05;100.31
67186;HTU21D;54116;53.518;49.398;2023-03-03T14:46:37;-3.11;101.05
67186;HTU21D;54116;53.518;49.398;2023-03-03T14:49:30;-3.11;101.31
67186;HTU21D;54116;53.518;49.398;2023-03-03T14:52:02;-3.12;101.50
67186;HTU21D;54116;53.518;49.398;2023-03-03T14:54:40;-3.13;101.84
67186;HTU21D;54116;53.518;49.398;2023-03-03T14:59:38;-3.13;101.70
67186;HTU21D;54116;53.518;49.398;2023-03-03T15:02:29;-3.13;103.94
67186;HTU21D;54116;53.518;49.398;2023-03-03T15:08:12;-3.18;103.97
67186;HTU21D;54116;53.518;49.398;2023-03-03T15:10:44;-3.24;102.35
67186;HTU21D;54116;53.518;49.398;2023-03-03T15:15:59;-3.30;102.88
67186;HTU21D;54116;53.518;49.398;2023-03-03T15:18:26;-3.34;103.60
67186;HTU21D;54116;53.518;49.398;2023-03-03T15:26:41;-3.27;104.24
67186;HTU21D;54116;53.518;49.398;2023-03-03T15:29:23;-3.19;105.22
67186;HTU21D;54116;53.518;49.398;2023-03-03T15:31:57;-3.07;105.11
67186;HTU21D;54116;53.518;49.398;2023-03-03T15:37:55;-2.87;104.31
67186;HTU21D;54116;53.518;49.398;2023-03-03T15:40:52;-2.82;104.41
67186;HTU21D;54116;53.518;49.398;2023-03-03T15:43:26;-2.76;104.08
67186;HTU21D;54116;53.518;49.398;2023-03-03T15:46:19;-2.72;104.34
67186;HTU21D;54116;53.518;49.398;2023-03-03T15:54:29;-2.62;103.96
67186;HTU21D;54116;53.518;49.398;2023-03-03T15:57:04;-2.59;104.25
67186;HTU21D;54116;53.518;49.398;2023-03-03T16:04:57;-2.50;104.88
67186;HTU21D;54116;53.518;49.398;2023-03-03T16:07:50;-2.46;104.81
67186;HTU21D;54116;53.518;49.398;2023-03-03T16:21:17;-2.54;105.94
67186;HTU21D;54116;53.518;49.398;2023-03-03T16:23:53;-2.59;105.95
67186;HTU21D;54116;53.518;49.398;2023-03-03T16:26:39;-2.58;107.00
67186;HTU21D;54116;53.518;49.398;2023-03-03T16:32:43;-2.57;107.52
67186;HTU21D;54116;53.518;49.398;2023-03-03T16:35:25;-2.57;107.72
67186;HTU21D;54116;53.518;49.398;2023-03-03T16:37:58;-2.58;108.23
67186;HTU21D;54116;53.518;49.398;2023-03-03T16:40:26;-2.62;108.65
67186;HTU21D;54116;53.518;49.398;2023-03-03T16:45:57;-2.74;109.50
67186;HTU21D;54116;53.518;49.398;2023-03-03T16:54:53;-2.84;110.14
67186;HTU21D;54116;53.518;49.398;2023-03-03T17:00:29;-2.90;110.68
67186;HTU21D;54116;53.518;49.398;2023-03-03T17:03:17;-2.93;112.00
67186;HTU21D;54116;53.518;49.398;2023-03-03T17:11:52;-3.00;115.94
67186;HTU21D;54116;53.518;49.398;2023-03-03T17:16:59;-3.10;115.20
67186;HTU21D;54116;53.518;49.398;2023-03-03T17:25:21;-3.23;115.29
67186;HTU21D;54116;53.518;49.398;2023-03-03T17:41:58;-2.77;114.64
67186;HTU21D;54116;53.518;49.398;2023-03-03T17:47:23;-2.79;113.27
67186;HTU21D;54116;53.518;49.398;2023-03-03T18:12:07;-2.77;115.60
67186;HTU21D;54116;53.518;49.398;2023-03-03T18:15:07;-2.72;115.14
67186;HTU21D;54116;53.518;49.398;2023-03-03T18:20:27;-2.76;114.48
67186;HTU21D;54116;53.518;49.398;2023-03-03T18:22:56;-2.83;114.09
67186;HTU21D;54116;53.518;49.398;2023-03-03T18:25:24;-2.88;113.95
67186;HTU21D;54116;53.518;49.398;2023-03-03T18:30:27;-3.03;114.12
67186;HTU21D;54116;53.518;49.398;2023-03-03T18:37:55;-2.98;115.22
67186;HTU21D;54116;53.518;49.398;2023-03-03T18:40:30;-3.00;115.55
67186;HTU21D;54116;53.518;49.398;2023-03-03T18:42:57;-2.88;115.96
67186;HTU21D;54116;53.518;49.398;2023-03-03T18:50:49;-2.54;116.14
67186;HTU21D;54116;53.518;49.398;2023-03-03T18:53:33;-2.46;116.12
67186;HTU21D;54116;53.518;49.398;2023-03-03T18:56:10;-2.32;116.24
67186;HTU21D;54116;53.518;49.398;2023-03-03T18:58:41;-2.20;116.22
67186;HTU21D;54116;53.518;49.398;2023-03-03T19:03:54;-2.08;115.42
67186;HTU21D;54116;53.518;49.398;2023-03-03T19:06:31;-2.02;115.21
67186;HTU21D;54116;53.518;49.398;2023-03-03T19:09:52;-1.98;114.67
67186;HTU21D;54116;53.518;49.398;2023-03-03T19:18:19;-2.01;114.06
67186;HTU21D;54116;53.518;49.398;2023-03-03T19:21:18;-2.01;113.74
67186;HTU21D;54116;53.518;49.398;2023-03-03T19:23:49;-2.05;113.78
67186;HTU21D;54116;53.518;49.398;2023-03-03T19:34:58;-2.10;113.90
67186;HTU21D;54116;53.518;49.398;2023-03-03T19:37:40;-2.17;113.93
67186;HTU21D;54116;53.518;49.398;2023-03-03T19:43:42;-2.26;113.90
67186;HTU21D;54116;53.518;49.398;2023-03-03T19:49:26;-2.18;114.55
67186;HTU21D;54116;53.518;49.398;2023-03-03T19:52:04;-2.12;114.91
67186;HTU21D;54116;53.518;49.398;2023-03-03T19:54:57;-2.08;114.71
67186;HTU21D;54116;53.518;49.398;2023-03-03T19:58:09;-2.06;114.56
67186;HTU21D;54116;53.518;49.398;2023-03-03T20:06:18;-2.12;113.89
67186;HTU21D;54116;53.518;49.398;2023-03-03T20:20:13;-2.02;114.03
67186;HTU21D;54116;53.518;49.398;2023-03-03T20:29:05;-1.92;113.79
67186;HTU21D;54116;53.518;49.398;2023-03-03T20:37:13;-1.92;113.24
67186;HTU21D;54116;53.518;49.398;2023-03-03T20:46:07;-2.10;112.55
67186;HTU21D;54116;53.518;49.398;2023-03-03T21:05:58;-2.16;113.37
67186;HTU21D;54116;53.518;49.398;2023-03-03T21:08:51;-2.10;112.58
67186;HTU21D;54116;53.518;49.398;2023-03-03T21:13:56;-2.05;111.73
67186;HTU21D;54116;53.518;49.398;2023-03-03T21:19:32;-2.05;112.01
67186;HTU21D;54116;53.518;49.398;2023-03-03T21:21:54;-1.99;111.69
67186;HTU21D;54116;53.518;49.398;2023-03-03T21:24:21;-1.93;111.71
67186;HTU21D;54116;53.518;49.398;2023-03-03T21:26:59;-1.89;111.35
67186;HTU21D;54116;53.518;49.398;2023-03-03T21:29:28;-1.85;110.91
67186;HTU21D;54116;53.518;49.398;2023-03-03T21:32:05;-1.82;110.78
67186;HTU21D;54116;53.518;49.398;2023-03-03T21:34:33;-1.80;110.33